sensor_id;sensor_type;location;lat;lon;timestamp;temperature;humidity
19342;DHT22;9807;48.258;12.690;2022-11-02T00:01:35;13.80;99.90
19342;DHT22;9807;48.258;12.690;2022-11-02T00:04:02;13.80;99.90
19342;DHT22;9807;48.258;12.690;2022-11-02T00:06:31;13.80;99.90
19342;DHT22;9807;48.258;12.690;2022-11-02T00:08:57;13.80;99.90
19342;DHT22;9807;48.258;12.690;2022-11-02T00:11:22;13.90;99.90
19342;DHT22;9807;48.258;12.690;2022-11-02T00:13:48;14.00;99.90
19342;DHT22;9807;48.258;12.690;2022-11-02T00:16:15;14.00;99.90
19342;DHT22;9807;48.258;12.690;2022-11-02T00:18:42;14.10;99.90
19342;DHT22;9807;48.258;12.690;2022-11-02T00:21:10;14.00;99.90
19342;DHT22;9807;48.258;12.690;2022-11-02T00:23:36;14.10;99.90
19342;DHT22;9807;48.258;12.690;2022-11-02T00:26:02;14.10;99.90
19342;DHT22;9807;48.258;12.690;2022-11-02T00:28:29;14.10;99.90
19342;DHT22;9807;48.258;12.690;2022-11-02T00:30:57;14.10;99.90
19342;DHT22;9807;48.258;12.690;2022-11-02T00:33:26;14.00;99.90
19342;DHT22;9807;48.258;12.690;2022-11-02T00:35:53;13.80;99.90
19342;DHT22;9807;48.258;12.690;2022-11-02T00:38:19;13.60;99.90
19342;DHT22;9807;48.258;12.690;2022-11-02T00:40:45;13.30;99.90
19342;DHT22;9807;48.258;12.690;2022-11-02T00:43:14;13.00;99.90
19342;DHT22;9807;48.258;12.690;2022-11-02T00:45:40;12.50;99.90
19342;DHT22;9807;48.258;12.690;2022-11-02T01:11:11;12.80;99.90
19342;DHT22;9807;48.258;12.690;2022-11-02T01:13:37;13.00;99.90
19342;DHT22;9807;48.258;12.690;2022-11-02T01:19:26;13.20;99.90
19342;DHT22;9807;48.258;12.690;2022-11-02T01:21:53;13.10;99.90
19342;DHT22;9807;48.258;12.690;2022-11-02T01:24:33;12.90;99.90
19342;DHT22;9807;48.258;12.690;2022-11-02T01:36:03;13.10;99.90
19342;DHT22;9807;48.258;12.690;2022-11-02T01:38:30;13.20;99.90
19342;DHT22;9807;48.258;12.690;2022-11-02T01:40:56;13.10;99.90
19342;DHT22;9807;48.258;12.690;2022-11-02T01:43:32;13.00;99.90
19342;DHT22;9807;48.258;12.690;2022-11-02T01:49:08;13.20;99.90
19342;DHT22;9807;48.258;12.690;2022-11-02T01:54:44;13.00;99.90
19342;DHT22;9807;48.258;12.690;2022-11-02T08:36:09;13.40;99.90
19342;DHT22;9807;48.258;12.690;2022-11-02T08:38:55;13.60;99.90
19342;DHT22;9807;48.258;12.690;2022-11-02T08:41:21;13.70;99.90
19342;DHT22;9807;48.258;12.690;2022-11-02T08:43:56;13.80;99.90
19342;DHT22;9807;48.258;12.690;2022-11-02T08:46:26;13.90;99.90
19342;DHT22;9807;48.258;12.690;2022-11-02T08:48:53;13.90;99.90
19342;DHT22;9807;48.258;12.690;2022-11-02T08:51:28;13.90;99.90
19342;DHT22;9807;48.258;12.690;2022-11-02T08:54:14;14.00;99.90
19342;DHT22;9807;48.258;12.690;2022-11-02T08:56:40;14.00;99.90
19342;DHT22;9807;48.258;12.690;2022-11-02T08:59:06;14.10;99.90
19342;DHT22;9807;48.258;12.690;2022-11-02T09:01:35;14.10;99.90
19342;DHT22;9807;48.258;12.690;2022-11-02T09:04:04;14.20;99.90
19342;DHT22;9807;48.258;12.690;2022-11-02T09:06:31;14.10;99.90
19342;DHT22;9807;48.258;12.690;2022-11-02T09:08:56;13.90;99.90
19342;DHT22;9807;48.258;12.690;2022-11-02T09:11:22;13.90;99.90
19342;DHT22;9807;48.258;12.690;2022-11-02T09:13:48;14.10;99.90
19342;DHT22;9807;48.258;12.690;2022-11-02T09:16:13;13.80;99.90
19342;DHT22;9807;48.258;12.690;2022-11-02T09:18:39;13.80;99.90
19342;DHT22;9807;48.258;12.690;2022-11-02T09:21:05;13.80;99.90
19342;DHT22;9807;48.258;12.690;2022-11-02T09:23:31;13.60;99.90
19342;DHT22;9807;48.258;12.690;2022-11-02T09:25:57;13.60;99.90
19342;DHT22;9807;48.258;12.690;2022-11-02T09:44:55;13.40;99.90
19342;DHT22;9807;48.258;12.690;2022-11-02T10:20:38;14.20;99.90
19342;DHT22;9807;48.258;12.690;2022-11-02T10:23:10;14.30;99.90
19342;DHT22;9807;48.258;12.690;2022-11-02T10:25:42;14.40;99.90
19342;DHT22;9807;48.258;12.690;2022-11-02T10:28:17;14.50;99.90
19342;DHT22;9807;48.258;12.690;2022-11-02T10:30:51;14.50;99.90
19342;DHT22;9807;48.258;12.690;2022-11-02T10:33:25;14.50;99.90
19342;DHT22;9807;48.258;12.690;2022-11-02T10:39:05;14.60;99.90
19342;DHT22;9807;48.258;12.690;2022-11-02T10:52:20;15.30;99.90
19342;DHT22;9807;48.258;12.690;2022-11-02T10:54:49;15.40;99.90
19342;DHT22;9807;48.258;12.690;2022-11-02T10:57:22;15.50;99.90
19342;DHT22;9807;48.258;12.690;2022-11-02T11:06:09;15.90;99.90
19342;DHT22;9807;48.258;12.690;2022-11-02T11:08:40;16.00;99.90
19342;DHT22;9807;48.258;12.690;2022-11-02T14:47:39;14.90;99.90
19342;DHT22;9807;48.258;12.690;2022-11-02T14:50:38;15.00;99.90
19342;DHT22;9807;48.258;12.690;2022-11-02T14:53:26;15.00;99.90
19342;DHT22;9807;48.258;12.690;2022-11-02T14:55:56;14.90;99.90
19342;DHT22;9807;48.258;12.690;2022-11-02T14:58:25;14.90;99.90
19342;DHT22;9807;48.258;12.690;2022-11-02T15:00:57;14.90;99.90
19342;DHT22;9807;48.258;12.690;2022-11-02T15:06:25;14.80;99.90
19342;DHT22;9807;48.258;12.690;2022-11-02T15:09:01;14.80;99.90
19342;DHT22;9807;48.258;12.690;2022-11-02T15:12:19;14.80;99.90
19342;DHT22;9807;48.258;12.690;2022-11-02T15:19:44;14.80;99.90
19342;DHT22;9807;48.258;12.690;2022-11-02T15:27:39;14.90;99.90
19342;DHT22;9807;48.258;12.690;2022-11-02T15:30:06;14.90;99.90
19342;DHT22;9807;48.258;12.690;2022-11-02T15:32:39;14.90;99.90
19342;DHT22;9807;48.258;12.690;2022-11-02T15:35:14;14.90;99.90
19342;DHT22;9807;48.258;12.690;2022-11-02T15:37:44;14.90;99.90
19342;DHT22;9807;48.258;12.690;2022-11-02T15:40:22;14.70;99.90
19342;DHT22;9807;48.258;12.690;2022-11-02T15:43:12;14.70;99.90
19342;DHT22;9807;48.258;12.690;2022-11-02T15:46:03;14.80;99.90
19342;DHT22;9807;48.258;12.690;2022-11-02T15:51:20;15.10;99.90
19342;DHT22;9807;48.258;12.690;2022-11-02T15:54:04;15.30;99.90
19342;DHT22;9807;48.258;12.690;2022-11-02T16:04:31;15.40;99.90
19342;DHT22;9807;48.258;12.690;2022-11-02T16:07:03;15.40;99.90
19342;DHT22;9807;48.258;12.690;2022-11-02T16:09:35;15.50;99.90
19342;DHT22;9807;48.258;12.690;2022-11-02T16:15:16;15.20;99.90
19342;DHT22;9807;48.258;12.690;2022-11-02T16:17:47;15.00;99.90
19342;DHT22;9807;48.258;12.690;2022-11-02T16:23:02;14.40;99.90
19342;DHT22;9807;48.258;12.690;2022-11-02T16:25:44;14.40;99.90
19342;DHT22;9807;48.258;12.690;2022-11-02T16:28:31;14.60;99.90
19342;DHT22;9807;48.258;12.690;2022-11-02T16:31:13;14.70;99.90
19342;DHT22;9807;48.258;12.690;2022-11-02T16:36:35;14.90;99.90
19342;DHT22;9807;48.258;12.690;2022-11-02T16:39:21;14.80;99.90
19342;DHT22;9807;48.258;12.690;2022-11-02T16:41:49;14.80;99.90
19342;DHT22;9807;48.258;12.690;2022-11-02T16:44:21;14.80;99.90
19342;DHT22;9807;48.258;12.690;2022-11-02T16:46:57;14.80;99.90
19342;DHT22;9807;48.258;12.690;2022-11-02T16:49:26;14.80;99.90
19342;DHT22;9807;48.258;12.690;2022-11-02T16:52:16;14.70;99.90
19342;DHT22;9807;48.258;12.690;2022-11-02T16:54:46;14.50;99.90
19342;DHT22;9807;48.258;12.690;2022-11-02T16:57:19;14.50;99.90
19342;DHT22;9807;48.258;12.690;2022-11-02T17:00:00;14.60;99.90
19342;DHT22;9807;48.258;12.690;2022-11-02T17:02:37;14.60;99.90
19342;DHT22;9807;48.258;12.690;2022-11-02T17:05:11;14.70;99.90
19342;DHT22;9807;48.258;12.690;2022-11-02T17:07:46;14.70;99.90
19342;DHT22;9807;48.258;12.690;2022-11-02T17:10:25;14.70;99.90
19342;DHT22;9807;48.258;12.690;2022-11-02T17:12:52;14.70;99.90
19342;DHT22;9807;48.258;12.690;2022-11-02T17:15:26;14.60;99.90
19342;DHT22;9807;48.258;12.690;2022-11-02T17:20:35;14.30;99.90
19342;DHT22;9807;48.258;12.690;2022-11-02T17:23:07;14.30;99.90
19342;DHT22;9807;48.258;12.690;2022-11-02T17:25:36;14.40;99.90
19342;DHT22;9807;48.258;12.690;2022-11-02T17:28:42;14.30;99.90
19342;DHT22;9807;48.258;12.690;2022-11-02T17:31:30;14.20;99.90
19342;DHT22;9807;48.258;12.690;2022-11-02T17:34:16;14.20;99.90
19342;DHT22;9807;48.258;12.690;2022-11-02T17:36:45;14.30;99.90
19342;DHT22;9807;48.258;12.690;2022-11-02T17:39:13;14.30;99.90
19342;DHT22;9807;48.258;12.690;2022-11-02T17:41:39;14.30;99.90
19342;DHT22;9807;48.258;12.690;2022-11-02T17:44:27;14.20;99.90
19342;DHT22;9807;48.258;12.690;2022-11-02T17:46:54;14.20;99.90
19342;DHT22;9807;48.258;12.690;2022-11-02T17:49:20;14.20;99.90
19342;DHT22;9807;48.258;12.690;2022-11-02T17:51:46;14.30;99.90
19342;DHT22;9807;48.258;12.690;2022-11-02T17:54:13;14.30;99.90
19342;DHT22;9807;48.258;12.690;2022-11-02T17:56:39;14.20;99.90
19342;DHT22;9807;48.258;12.690;2022-11-02T17:59:05;14.10;99.90
19342;DHT22;9807;48.258;12.690;2022-11-02T18:01:31;14.10;99.90
19342;DHT22;9807;48.258;12.690;2022-11-02T18:03:57;14.20;99.90
19342;DHT22;9807;48.258;12.690;2022-11-02T18:06:23;14.10;99.90
19342;DHT22;9807;48.258;12.690;2022-11-02T18:08:48;14.10;99.90
19342;DHT22;9807;48.258;12.690;2022-11-02T18:11:33;14.10;99.90
19342;DHT22;9807;48.258;12.690;2022-11-02T18:13:58;14.10;99.90
19342;DHT22;9807;48.258;12.690;2022-11-02T18:16:24;14.10;99.90
19342;DHT22;9807;48.258;12.690;2022-11-02T18:18:50;14.00;99.90
19342;DHT22;9807;48.258;12.690;2022-11-02T18:21:16;14.00;99.90
19342;DHT22;9807;48.258;12.690;2022-11-02T18:23:41;14.00;99.90
19342;DHT22;9807;48.258;12.690;2022-11-02T18:26:14;14.00;99.90
19342;DHT22;9807;48.258;12.690;2022-11-02T18:28:39;14.00;99.90
19342;DHT22;9807;48.258;12.690;2022-11-02T18:31:07;13.80;99.90
19342;DHT22;9807;48.258;12.690;2022-11-02T18:33:33;13.60;99.90
19342;DHT22;9807;48.258;12.690;2022-11-02T18:36:04;13.60;99.90
19342;DHT22;9807;48.258;12.690;2022-11-02T18:38:30;13.70;99.90
19342;DHT22;9807;48.258;12.690;2022-11-02T18:41:01;13.70;99.90
19342;DHT22;9807;48.258;12.690;2022-11-02T18:43:26;13.80;99.90
19342;DHT22;9807;48.258;12.690;2022-11-02T18:45:54;13.80;99.90
19342;DHT22;9807;48.258;12.690;2022-11-02T18:48:24;13.80;99.90
19342;DHT22;9807;48.258;12.690;2022-11-02T18:50:54;13.80;99.90
19342;DHT22;9807;48.258;12.690;2022-11-02T18:53:22;13.80;99.90
19342;DHT22;9807;48.258;12.690;2022-11-02T18:55:48;13.70;99.90
19342;DHT22;9807;48.258;12.690;2022-11-02T18:58:29;13.30;99.90
19342;DHT22;9807;48.258;12.690;2022-11-02T19:00:54;12.80;99.90
19342;DHT22;9807;48.258;12.690;2022-11-02T19:03:20;12.80;99.90
19342;DHT22;9807;48.258;12.690;2022-11-02T19:05:46;12.90;99.90
19342;DHT22;9807;48.258;12.690;2022-11-02T19:08:30;13.00;99.90
19342;DHT22;9807;48.258;12.690;2022-11-02T19:11:14;13.00;99.90
19342;DHT22;9807;48.258;12.690;2022-11-02T19:13:40;13.20;99.90
19342;DHT22;9807;48.258;12.690;2022-11-02T19:16:06;13.30;99.90
19342;DHT22;9807;48.258;12.690;2022-11-02T19:18:32;13.30;99.90
19342;DHT22;9807;48.258;12.690;2022-11-02T19:21:01;13.40;99.90
19342;DHT22;9807;48.258;12.690;2022-11-02T19:23:31;13.40;99.90
19342;DHT22;9807;48.258;12.690;2022-11-02T19:26:00;13.40;99.90
19342;DHT22;9807;48.258;12.690;2022-11-02T19:28:26;13.40;99.90
19342;DHT22;9807;48.258;12.690;2022-11-02T19:30:57;13.40;99.90
19342;DHT22;9807;48.258;12.690;2022-11-02T19:33:23;13.40;99.90
19342;DHT22;9807;48.258;12.690;2022-11-02T19:35:56;13.40;99.90
19342;DHT22;9807;48.258;12.690;2022-11-02T19:38:23;13.40;99.90
19342;DHT22;9807;48.258;12.690;2022-11-02T19:41:02;13.40;99.90
19342;DHT22;9807;48.258;12.690;2022-11-02T19:43:31;13.40;99.90
19342;DHT22;9807;48.258;12.690;2022-11-02T19:46:01;13.40;99.90
19342;DHT22;9807;48.258;12.690;2022-11-02T19:48:29;13.30;99.90
19342;DHT22;9807;48.258;12.690;2022-11-02T19:51:33;13.20;99.90
19342;DHT22;9807;48.258;12.690;2022-11-02T19:54:00;13.10;99.90
19342;DHT22;9807;48.258;12.690;2022-11-02T19:56:37;13.10;99.90
19342;DHT22;9807;48.258;12.690;2022-11-02T19:59:06;13.20;99.90
19342;DHT22;9807;48.258;12.690;2022-11-02T20:04:34;13.20;99.90
19342;DHT22;9807;48.258;12.690;2022-11-02T20:07:00;13.20;99.90
19342;DHT22;9807;48.258;12.690;2022-11-02T20:09:25;13.00;99.90
19342;DHT22;9807;48.258;12.690;2022-11-02T20:11:51;12.70;99.90
19342;DHT22;9807;48.258;12.690;2022-11-02T20:14:17;12.70;99.90
19342;DHT22;9807;48.258;12.690;2022-11-02T20:16:43;12.80;99.90
19342;DHT22;9807;48.258;12.690;2022-11-02T20:19:09;12.90;99.90
19342;DHT22;9807;48.258;12.690;2022-11-02T20:21:40;12.90;99.90
19342;DHT22;9807;48.258;12.690;2022-11-02T20:24:07;12.90;99.90
19342;DHT22;9807;48.258;12.690;2022-11-02T20:26:39;13.00;99.90
19342;DHT22;9807;48.258;12.690;2022-11-02T20:29:14;13.00;99.90
19342;DHT22;9807;48.258;12.690;2022-11-02T20:35:05;13.10;99.90
19342;DHT22;9807;48.258;12.690;2022-11-02T20:37:33;13.00;99.90
19342;DHT22;9807;48.258;12.690;2022-11-02T20:40:51;12.90;99.90
19342;DHT22;9807;48.258;12.690;2022-11-02T20:43:55;12.90;99.90
19342;DHT22;9807;48.258;12.690;2022-11-02T20:46:27;12.90;99.90
19342;DHT22;9807;48.258;12.690;2022-11-02T20:49:16;12.90;99.90
19342;DHT22;9807;48.258;12.690;2022-11-02T20:52:13;12.90;99.90
19342;DHT22;9807;48.258;12.690;2022-11-02T20:58:04;12.80;99.90
19342;DHT22;9807;48.258;12.690;2022-11-02T21:01:12;12.70;99.90
19342;DHT22;9807;48.258;12.690;2022-11-02T21:15:35;12.30;99.90
19342;DHT22;9807;48.258;12.690;2022-11-02T21:18:01;12.50;99.90
19342;DHT22;9807;48.258;12.690;2022-11-02T21:20:30;12.60;99.90
19342;DHT22;9807;48.258;12.690;2022-11-02T21:22:59;12.70;99.90
19342;DHT22;9807;48.258;12.690;2022-11-02T21:25:25;12.70;99.90
19342;DHT22;9807;48.258;12.690;2022-11-02T21:27:51;12.70;99.90
19342;DHT22;9807;48.258;12.690;2022-11-02T21:30:17;12.80;99.90
19342;DHT22;9807;48.258;12.690;2022-11-02T21:32:43;12.80;99.90
19342;DHT22;9807;48.258;12.690;2022-11-02T21:35:09;12.80;99.90
19342;DHT22;9807;48.258;12.690;2022-11-02T21:37:35;12.80;99.90
19342;DHT22;9807;48.258;12.690;2022-11-02T21:43:23;12.80;99.90
19342;DHT22;9807;48.258;12.690;2022-11-02T21:45:53;12.70;99.90
19342;DHT22;9807;48.258;12.690;2022-11-02T21:48:21;12.50;99.90
19342;DHT22;9807;48.258;12.690;2022-11-02T21:54:09;12.40;99.90
19342;DHT22;9807;48.258;12.690;2022-11-02T21:56:54;12.50;99.90
19342;DHT22;9807;48.258;12.690;2022-11-02T21:59:30;12.50;99.90
19342;DHT22;9807;48.258;12.690;2022-11-02T22:08:35;12.40;99.90
19342;DHT22;9807;48.258;12.690;2022-11-02T22:14:37;12.30;99.90
19342;DHT22;9807;48.258;12.690;2022-11-02T22:17:08;12.40;99.90
